createdAt,value
2019-05-23T18:34:16.117Z,52.42
2019-05-23T18:35:16.095Z,55.33
2019-05-23T18:36:16.087Z,54.55
2019-05-23T18:37:16.078Z,53.55
2019-05-23T18:38:17.198Z,50.32
2019-05-23T18:39:17.221Z,50.25
2019-05-23T18:40:17.150Z,51.20
2019-05-23T18:41:17.132Z,50.50
2019-05-23T18:42:17.129Z,54.20
2019-05-23T18:43:17.138Z,53.08
2019-05-23T18:44:17.104Z,50.38
2019-05-23T18:45:17.104Z,54.99
2019-05-23T18:46:17.095Z,52.31
2019-05-23T18:47:17.088Z,55.12
2019-05-23T18:48:17.098Z,55.51
2019-05-23T18:49:17.073Z,52.22
2019-05-23T18:50:17.063Z,50.05
2019-05-23T18:51:17.055Z,55.42
2019-05-23T18:52:17.049Z,53.70
2019-05-23T18:53:17.051Z,54.34
2019-05-23T18:54:17.033Z,49.91
2019-05-23T18:55:17.033Z,53.33
2019-05-23T18:56:17.024Z,50.75
2019-05-23T18:57:17.019Z,51.25
2019-05-23T18:58:19.721Z,52.74
2019-05-23T18:59:17.990Z,52.60
2019-05-23T19:00:16.983Z,53.32
2019-05-23T19:01:16.972Z,55.29
2019-05-23T19:02:16.966Z,50.99
2019-05-23T19:03:16.974Z,52.33
2019-05-23T19:04:17.294Z,50.44
2019-05-23T19:05:16.942Z,50.50
2019-05-23T19:06:16.928Z,48.94
2019-05-23T19:07:16.925Z,49.87
2019-05-23T19:08:16.926Z,52.12
2019-05-23T19:09:17.243Z,54.92
2019-05-23T19:10:16.895Z,51.07
2019-05-23T19:11:21.167Z,46.08
2019-05-23T19:12:17.877Z,43.91
2019-05-23T19:13:17.813Z,45.11
2019-05-23T19:14:17.213Z,51.76
2019-05-23T19:15:16.851Z,46.67
2019-05-23T19:16:16.878Z,52.38
2019-05-23T19:17:16.844Z,50.42
2019-05-23T19:18:16.834Z,53.20
2019-05-23T19:19:17.178Z,47.71
2019-05-23T19:20:16.820Z,49.47
2019-05-23T19:21:16.808Z,51.09
2019-05-23T19:22:16.806Z,51.66
2019-05-23T19:23:16.985Z,55.33
2019-05-23T19:24:16.786Z,52.52
2019-05-23T19:25:16.781Z,48.42
2019-05-23T19:26:16.764Z,50.59
2019-05-23T19:27:16.761Z,51.95
2019-05-23T19:28:16.767Z,45.31
2019-05-23T19:29:16.759Z,48.47
2019-05-23T19:30:16.732Z,47.33
2019-05-23T19:31:16.727Z,46.07
2019-05-23T19:32:16.726Z,46.71
2019-05-23T19:33:16.726Z,48.83
2019-05-23T19:34:16.708Z,47.08
2019-05-23T19:35:16.691Z,43.87
2019-05-23T19:36:16.703Z,44.50
2019-05-23T19:37:16.674Z,48.80
2019-05-23T19:38:16.709Z,47.61
2019-05-23T19:39:16.665Z,45.29
2019-05-23T19:40:16.655Z,48.21
2019-05-23T19:41:16.650Z,47.14
2019-05-23T19:42:17.104Z,48.03
2019-05-23T19:43:16.912Z,47.84
2019-05-23T19:44:16.883Z,44.11
2019-05-23T19:45:16.610Z,49.20
2019-05-23T19:46:16.599Z,45.19
2019-05-23T19:47:16.595Z,42.25
2019-05-23T19:48:16.578Z,47.82
2019-05-23T19:49:16.580Z,46.31
2019-05-23T19:50:16.563Z,42.27
2019-05-23T19:51:16.555Z,48.29
2019-05-23T19:52:16.558Z,41.03
2019-05-23T19:53:20.177Z,41.03
2019-05-23T19:54:16.542Z,43.87
2019-05-23T19:55:16.577Z,44.68
2019-05-23T19:56:16.518Z,47.01
2019-05-23T19:57:16.510Z,45.72
2019-05-23T19:58:16.506Z,43.48
2019-05-23T19:59:20.679Z,44.81
2019-05-23T20:00:16.517Z,50.02
2019-05-23T20:01:16.480Z,47.57
2019-05-23T20:02:16.476Z,44.53
2019-05-23T20:03:16.469Z,49.37
2019-05-23T20:04:16.467Z,45.50
2019-05-23T20:05:16.450Z,39.90
2019-05-23T20:06:16.437Z,42.03
2019-05-23T20:07:16.472Z,44.55
2019-05-23T20:08:16.423Z,48.63
2019-05-23T20:09:16.797Z,41.71
2019-05-23T20:10:16.407Z,46.95
2019-05-23T20:11:16.406Z,42.65
2019-05-23T20:12:16.397Z,43.27
2019-05-23T20:13:18.701Z,41.73
2019-05-23T20:14:17.393Z,40.71
2019-05-23T20:15:16.365Z,48.58
2019-05-23T20:16:16.365Z,40.30
2019-05-23T20:17:16.351Z,44.69
2019-05-23T20:18:16.355Z,42.27
2019-05-23T20:19:16.345Z,43.98
2019-05-23T20:20:16.357Z,40.72
2019-05-23T20:21:17.318Z,42.56
2019-05-23T20:22:16.320Z,46.89
2019-05-23T20:23:16.528Z,45.01
2019-05-23T20:24:16.307Z,46.72
2019-05-23T20:25:16.303Z,39.77
2019-05-23T20:26:16.280Z,42.66
2019-05-23T20:27:16.277Z,48.86
2019-05-23T20:28:16.266Z,46.30
2019-05-23T20:29:16.355Z,44.72
2019-05-23T20:30:16.249Z,46.74
2019-05-23T20:31:16.242Z,45.48
2019-05-23T20:32:16.230Z,39.63
2019-05-23T20:33:16.224Z,44.32
2019-05-23T20:34:16.211Z,46.73
2019-05-23T20:35:16.212Z,47.83
2019-05-23T20:36:16.198Z,41.20
2019-05-23T20:37:16.190Z,42.88
2019-05-23T20:38:16.177Z,43.18
2019-05-23T20:39:16.178Z,46.10
2019-05-23T20:40:16.204Z,51.48
2019-05-23T20:41:16.181Z,45.68
2019-05-23T20:42:16.187Z,40.28
2019-05-23T20:43:16.135Z,51.93
2019-05-23T20:44:16.139Z,41.06
2019-05-23T20:45:16.128Z,41.24
2019-05-23T20:46:16.113Z,48.41
2019-05-23T20:47:16.108Z,45.13
2019-05-23T20:48:16.096Z,46.57
2019-05-23T20:49:16.088Z,46.73
2019-05-23T20:50:16.086Z,42.42
2019-05-23T20:51:16.072Z,42.16
2019-05-23T20:52:16.066Z,47.85
2019-05-23T20:53:16.051Z,44.46
2019-05-23T20:54:16.049Z,42.95
2019-05-23T20:55:16.085Z,44.50
2019-05-23T20:56:16.065Z,42.44
2019-05-23T20:57:16.034Z,40.79
2019-05-23T20:58:16.018Z,47.59
2019-05-23T20:59:16.007Z,49.46
